createdAt,value
2022-08-22T00:01:48.863Z,18.80
2022-08-22T00:02:56.264Z,20.09
2022-08-22T00:04:24.425Z,18.70
2022-08-22T00:07:11.695Z,18.67
2022-08-22T00:09:48.071Z,18.64
2022-08-22T00:12:45.747Z,18.62
2022-08-22T00:15:43.111Z,18.57
2022-08-22T00:18:36.329Z,18.55
2022-08-22T00:21:05.675Z,18.54
2022-08-22T00:24:25.330Z,18.50
2022-08-22T00:27:16.121Z,18.40
2022-08-22T00:29:48.983Z,18.34
2022-08-22T00:32:27.204Z,18.27
2022-08-22T00:35:03.998Z,18.25
2022-08-22T00:37:34.212Z,18.22
2022-08-22T00:40:39.794Z,18.13
2022-08-22T00:43:28.083Z,18.06
2022-08-22T00:46:39.871Z,18.04
2022-08-22T00:49:42.005Z,18.06
2022-08-22T00:52:25.499Z,18.05
2022-08-22T00:55:17.290Z,17.97
2022-08-22T00:57:46.636Z,17.94
2022-08-22T01:00:19.526Z,17.89
2022-08-22T01:02:58.087Z,17.81
2022-08-22T01:08:12.261Z,17.60
2022-08-22T01:10:54.191Z,17.52
2022-08-22T01:13:42.258Z,17.44
2022-08-22T01:16:31.139Z,17.52
2022-08-22T01:19:20.550Z,17.50
2022-08-22T01:22:17.859Z,17.26
2022-08-22T01:25:18.443Z,17.27
2022-08-22T01:28:20.083Z,17.28
2022-08-22T01:31:47.200Z,17.26
2022-08-22T01:34:32.487Z,17.05
2022-08-22T01:37:11.031Z,17.11
2022-08-22T01:39:55.370Z,17.19
2022-08-22T01:42:24.528Z,17.05
2022-08-22T01:45:25.677Z,17.03
2022-08-22T01:48:03.889Z,16.99
2022-08-22T01:50:42.330Z,17.04
2022-08-22T01:53:22.749Z,17.10
2022-08-22T01:56:11.055Z,16.91
2022-08-22T01:58:45.285Z,16.78
2022-08-22T02:01:18.059Z,16.83
2022-08-22T02:04:14.338Z,16.80
2022-08-22T02:06:44.732Z,16.81
2022-08-22T02:09:30.055Z,16.95
2022-08-22T02:12:02.614Z,16.82
2022-08-22T02:14:33.367Z,16.61
2022-08-22T02:17:24.552Z,16.66
2022-08-22T02:20:00.121Z,16.66
2022-08-22T02:22:37.038Z,16.67
2022-08-22T02:25:19.674Z,16.52
2022-08-22T02:27:55.181Z,16.57
2022-08-22T02:30:28.403Z,16.49
2022-08-22T02:33:34.430Z,16.62
2022-08-22T02:36:16.368Z,16.56
2022-08-22T02:39:04.998Z,16.56
2022-08-22T02:41:49.785Z,16.52
2022-08-22T02:44:25.602Z,16.52
2022-08-22T02:46:55.110Z,16.48
2022-08-22T02:49:53.083Z,16.44
2022-08-22T02:52:32.236Z,16.41
2022-08-22T02:55:12.455Z,16.34
2022-08-22T02:57:39.398Z,16.28
2022-08-22T03:00:32.828Z,16.26
2022-08-22T03:02:59.670Z,16.22
2022-08-22T03:05:26.291Z,16.32
2022-08-22T03:08:04.838Z,16.17
2022-08-22T03:10:38.082Z,16.24
2022-08-22T03:13:32.448Z,16.27
2022-08-22T03:16:06.552Z,16.22
2022-08-22T03:18:45.460Z,16.28
2022-08-22T03:21:15.828Z,16.20
2022-08-22T03:23:48.913Z,16.22
2022-08-22T03:26:24.686Z,16.13
2022-08-22T03:28:59.539Z,16.00
2022-08-22T03:31:29.116Z,16.02
2022-08-22T03:34:16.880Z,16.06
2022-08-22T03:37:08.668Z,16.09
2022-08-22T03:40:07.729Z,16.03
2022-08-22T03:42:52.979Z,16.08
2022-08-22T03:46:13.530Z,15.91
2022-08-22T03:49:10.263Z,15.86
2022-08-22T03:52:00.608Z,15.91
2022-08-22T03:54:40.391Z,15.77
2022-08-22T03:57:50.358Z,15.70
2022-08-22T04:00:41.958Z,15.74
2022-08-22T04:03:23.962Z,15.72
2022-08-22T04:06:11.494Z,15.78
2022-08-22T04:09:12.716Z,15.84
2022-08-22T04:12:24.212Z,15.83
2022-08-22T04:15:14.244Z,15.68
2022-08-22T04:18:14.153Z,15.58
2022-08-22T04:21:02.691Z,15.59
2022-08-22T04:23:48.107Z,15.60
2022-08-22T04:26:26.565Z,15.61
2022-08-22T04:29:02.882Z,15.57
2022-08-22T04:31:36.576Z,15.67
2022-08-22T04:34:12.167Z,15.60
2022-08-22T04:36:50.084Z,15.56
2022-08-22T04:39:24.571Z,15.62
2022-08-22T04:42:31.653Z,15.62
2022-08-22T04:45:08.075Z,15.59
2022-08-22T04:47:43.242Z,15.59
2022-08-22T04:50:18.360Z,15.56
2022-08-22T04:53:17.233Z,15.58
2022-08-22T04:55:46.872Z,15.58
2022-08-22T04:58:37.210Z,15.48
2022-08-22T05:01:06.427Z,15.51
2022-08-22T05:03:41.888Z,15.52
2022-08-22T05:06:13.635Z,15.57
2022-08-22T05:08:41.762Z,15.64
2022-08-22T05:11:11.607Z,15.74
2022-08-22T05:13:41.296Z,15.85
2022-08-22T05:16:14.768Z,15.78
2022-08-22T05:18:47.958Z,15.76
2022-08-22T05:21:18.285Z,15.70
2022-08-22T05:24:01.410Z,15.71
2022-08-22T05:26:34.286Z,15.86
2022-08-22T05:29:03.833Z,16.03
2022-08-22T05:31:35.139Z,16.12
2022-08-22T05:34:11.968Z,16.31
2022-08-22T05:36:44.892Z,16.33
2022-08-22T05:39:18.898Z,16.43
2022-08-22T05:41:46.669Z,16.57
2022-08-22T05:44:18.293Z,16.66
2022-08-22T05:46:57.196Z,16.59
2022-08-22T05:49:37.188Z,16.82
2022-08-22T05:52:32.369Z,17.02
2022-08-22T05:55:07.944Z,17.18
2022-08-22T05:57:41.669Z,17.25
2022-08-22T06:00:12.914Z,17.27
2022-08-22T06:03:00.723Z,17.34
2022-08-22T06:05:35.952Z,17.29
2022-08-22T06:08:10.244Z,17.52
2022-08-22T06:10:49.371Z,17.45
2022-08-22T06:13:34.309Z,17.60
2022-08-22T06:16:25.043Z,17.93
2022-08-22T06:18:52.762Z,18.22
2022-08-22T06:21:27.041Z,18.47
2022-08-22T06:24:02.565Z,18.58
2022-08-22T06:26:38.228Z,18.61
2022-08-22T06:29:07.377Z,18.56
2022-08-22T06:31:44.697Z,18.62
2022-08-22T06:34:15.086Z,18.54
2022-08-22T06:36:46.735Z,18.84
2022-08-22T06:39:24.066Z,18.96
2022-08-22T06:41:59.162Z,18.89
2022-08-22T06:44:55.048Z,18.80
2022-08-22T06:47:25.975Z,18.70
2022-08-22T06:50:02.029Z,18.64
2022-08-22T06:52:33.214Z,18.74
2022-08-22T06:55:04.691Z,18.62
2022-08-22T06:57:43.665Z,18.62
2022-08-22T07:00:17.086Z,18.75
2022-08-22T07:02:53.020Z,18.83
2022-08-22T07:05:23.549Z,18.89
2022-08-22T07:07:50.937Z,18.94
2022-08-22T07:10:18.055Z,19.01
2022-08-22T07:12:48.453Z,18.98
2022-08-22T07:15:50.749Z,19.11
2022-08-22T07:18:21.341Z,19.20
2022-08-22T07:20:54.532Z,19.31
2022-08-22T07:23:33.904Z,19.29
2022-08-22T07:26:12.315Z,19.41
2022-08-22T07:28:58.753Z,19.44
2022-08-22T07:31:31.797Z,19.60
2022-08-22T07:34:16.760Z,19.85
2022-08-22T07:36:59.338Z,19.95
2022-08-22T07:39:42.244Z,20.27
2022-08-22T07:42:17.635Z,20.25
2022-08-22T07:44:53.316Z,20.28
2022-08-22T07:47:26.608Z,20.42
2022-08-22T07:50:00.112Z,20.50
2022-08-22T07:52:35.911Z,20.47
2022-08-22T07:55:26.395Z,20.44
2022-08-22T07:57:55.460Z,20.54
2022-08-22T08:00:24.440Z,20.56
2022-08-22T08:02:54.259Z,20.66
2022-08-22T08:05:24.062Z,20.99
2022-08-22T08:07:54.317Z,21.23
2022-08-22T08:10:32.616Z,22.06
2022-08-22T08:13:03.734Z,22.73
2022-08-22T08:15:33.786Z,23.20
2022-08-22T08:18:06.254Z,23.13
2022-08-22T08:20:36.406Z,24.33
2022-08-22T08:23:06.790Z,24.69
2022-08-22T08:25:49.075Z,23.73
2022-08-22T08:28:34.219Z,25.40
2022-08-22T08:31:12.553Z,27.00
2022-08-22T08:33:42.542Z,25.69
2022-08-22T08:36:16.540Z,25.67
2022-08-22T08:38:43.071Z,27.52
2022-08-22T08:41:27.313Z,27.74
2022-08-22T08:44:15.309Z,27.14
2022-08-22T08:46:58.834Z,28.73
2022-08-22T08:49:52.888Z,29.58
2022-08-22T08:52:46.874Z,27.72
2022-08-22T08:56:00.524Z,28.95
2022-08-22T08:59:01.676Z,31.90
2022-08-22T09:01:47.248Z,30.28
2022-08-22T09:04:19.805Z,30.11
2022-08-22T09:07:07.777Z,28.99
2022-08-22T09:09:57.394Z,27.49
2022-08-22T09:12:43.442Z,25.44
2022-08-22T09:15:31.470Z,26.25
2022-08-22T09:18:21.512Z,27.67
2022-08-22T09:21:06.524Z,29.66
2022-08-22T09:23:38.195Z,27.93
2022-08-22T09:26:43.971Z,27.71
2022-08-22T09:29:34.107Z,30.32
2022-08-22T09:32:21.496Z,28.13
2022-08-22T09:35:16.394Z,28.11
2022-08-22T09:37:51.699Z,27.33
2022-08-22T09:40:43.303Z,26.58
2022-08-22T09:43:29.515Z,25.73
2022-08-22T09:46:21.895Z,25.70
2022-08-22T09:49:06.579Z,25.72
2022-08-22T09:51:43.626Z,25.66
2022-08-22T09:54:40.591Z,25.69
2022-08-22T09:57:14.003Z,26.46
2022-08-22T09:59:47.379Z,26.63
2022-08-22T10:02:27.582Z,28.22
2022-08-22T10:05:06.763Z,27.05
2022-08-22T10:07:37.099Z,27.57
2022-08-22T10:10:09.536Z,26.28
2022-08-22T10:12:58.733Z,30.20
2022-08-22T10:15:42.084Z,30.43
2022-08-22T10:18:38.019Z,29.73
2022-08-22T10:21:25.087Z,30.64
2022-08-22T10:24:24.609Z,31.19
2022-08-22T10:27:02.128Z,30.27
2022-08-22T10:29:48.371Z,31.14
2022-08-22T10:32:21.205Z,31.12
2022-08-22T10:34:59.356Z,30.95
2022-08-22T10:37:32.607Z,29.72
2022-08-22T10:40:07.973Z,28.49
2022-08-22T10:42:49.647Z,28.65
2022-08-22T10:45:40.181Z,28.01
2022-08-22T10:48:10.325Z,28.80
2022-08-22T10:51:22.412Z,29.56
2022-08-22T10:54:14.749Z,28.12
2022-08-22T10:57:03.523Z,29.02
2022-08-22T10:59:43.936Z,28.04
2022-08-22T11:02:16.174Z,26.35
2022-08-22T11:05:05.098Z,26.78
2022-08-22T11:07:59.162Z,27.42
2022-08-22T11:10:55.060Z,27.47
2022-08-22T11:13:21.587Z,27.41
2022-08-22T11:16:30.318Z,28.73
2022-08-22T11:19:14.956Z,28.37
2022-08-22T11:21:51.258Z,28.64
2022-08-22T11:24:53.954Z,29.42
2022-08-22T11:27:34.507Z,28.18
2022-08-22T11:30:25.891Z,28.37
2022-08-22T11:33:00.073Z,28.64
2022-08-22T11:35:40.180Z,30.07
2022-08-22T11:38:32.592Z,30.47
2022-08-22T11:41:12.611Z,29.35
2022-08-22T11:44:22.710Z,29.02
2022-08-22T11:46:57.189Z,29.32
2022-08-22T11:49:42.892Z,28.77
2022-08-22T11:52:29.189Z,27.54
2022-08-22T11:55:34.518Z,27.72
2022-08-22T11:58:28.833Z,27.35
2022-08-22T12:01:17.216Z,27.90
2022-08-22T12:04:04.373Z,26.88
2022-08-22T12:06:46.841Z,26.92
2022-08-22T12:09:20.971Z,26.76
2022-08-22T12:12:12.594Z,26.76
2022-08-22T12:14:57.118Z,26.73
2022-08-22T12:17:55.698Z,27.19
2022-08-22T12:20:36.404Z,27.08
2022-08-22T12:23:40.776Z,27.20
2022-08-22T12:26:26.933Z,27.05
2022-08-22T12:29:34.001Z,27.04
2022-08-22T12:32:27.415Z,26.90
2022-08-22T12:35:14.582Z,26.90
2022-08-22T12:37:52.132Z,27.06
2022-08-22T12:40:27.164Z,27.07
2022-08-22T12:43:32.529Z,27.35
2022-08-22T12:46:05.030Z,26.88
2022-08-22T12:48:47.717Z,27.01
2022-08-22T12:51:38.970Z,27.32
2022-08-22T12:54:18.326Z,26.95
2022-08-22T12:57:25.260Z,26.59
2022-08-22T13:00:23.075Z,26.63
2022-08-22T13:02:54.904Z,26.88
2022-08-22T13:05:29.187Z,27.09
2022-08-22T13:08:04.092Z,27.03
2022-08-22T13:10:49.834Z,27.09
2022-08-22T13:13:31.348Z,27.17
2022-08-22T13:16:07.634Z,27.19
2022-08-22T13:18:47.900Z,26.78
2022-08-22T13:21:31.562Z,27.06
2022-08-22T13:24:16.937Z,26.98
2022-08-22T13:26:56.908Z,26.91
2022-08-22T13:29:43.454Z,26.80
2022-08-22T13:32:20.021Z,26.86
2022-08-22T13:34:53.950Z,26.86
2022-08-22T13:37:31.446Z,26.96
2022-08-22T13:40:03.743Z,26.93
2022-08-22T13:42:33.926Z,27.10
2022-08-22T13:45:15.474Z,27.06
2022-08-22T13:47:52.465Z,26.87
2022-08-22T13:50:26.948Z,26.90
2022-08-22T13:53:04.965Z,27.00
2022-08-22T13:55:49.927Z,27.01
2022-08-22T13:58:40.185Z,26.90
2022-08-22T14:01:39.661Z,27.12
2022-08-22T14:04:32.012Z,27.41
2022-08-22T14:07:03.313Z,27.39
2022-08-22T14:09:56.923Z,27.50
2022-08-22T14:12:30.232Z,27.39
2022-08-22T14:15:08.011Z,27.26
2022-08-22T14:17:45.004Z,27.48
2022-08-22T14:20:32.449Z,27.41
2022-08-22T14:23:06.752Z,27.65
2022-08-22T14:25:40.650Z,27.66
2022-08-22T14:28:28.788Z,27.68
2022-08-22T14:31:13.768Z,27.68
2022-08-22T14:33:54.826Z,27.70
2022-08-22T14:36:27.475Z,27.89
2022-08-22T14:39:23.123Z,27.50
2022-08-22T14:42:04.069Z,27.56
2022-08-22T14:44:52.617Z,27.86
2022-08-22T14:47:55.382Z,27.86
2022-08-22T14:50:42.294Z,27.66
2022-08-22T14:53:25.492Z,27.47
2022-08-22T14:56:02.993Z,27.43
2022-08-22T14:58:34.223Z,27.54
2022-08-22T15:01:13.000Z,27.42
2022-08-22T15:03:43.072Z,27.50
2022-08-22T15:06:13.511Z,27.66
2022-08-22T15:08:50.761Z,27.58
2022-08-22T15:11:17.269Z,27.72
2022-08-22T15:13:51.215Z,27.77
2022-08-22T15:16:23.444Z,27.72
2022-08-22T15:18:51.710Z,27.39
2022-08-22T15:21:24.348Z,27.40
2022-08-22T15:23:55.497Z,27.45
2022-08-22T15:26:55.457Z,27.45
2022-08-22T15:29:28.922Z,27.60
2022-08-22T15:32:00.871Z,27.62
2022-08-22T15:34:32.714Z,27.66
2022-08-22T15:37:17.430Z,27.63
2022-08-22T15:40:13.449Z,27.51
2022-08-22T15:42:47.264Z,27.61
2022-08-22T15:45:38.415Z,27.56
2022-08-22T15:48:23.709Z,27.53
2022-08-22T15:51:01.378Z,27.42
2022-08-22T15:53:59.670Z,27.20
2022-08-22T15:56:29.261Z,27.04
2022-08-22T15:59:53.367Z,27.13
2022-08-22T16:02:53.503Z,27.39
2022-08-22T16:05:43.141Z,27.30
2022-08-22T16:08:14.267Z,27.32
2022-08-22T16:11:02.767Z,27.23
2022-08-22T16:13:33.627Z,27.24
2022-08-22T16:16:02.357Z,27.25
2022-08-22T16:18:39.628Z,27.11
2022-08-22T16:21:17.350Z,27.13
2022-08-22T16:23:51.334Z,27.08
2022-08-22T16:26:24.745Z,27.06
2022-08-22T16:29:03.342Z,26.90
2022-08-22T16:31:31.695Z,26.92
2022-08-22T16:34:16.678Z,26.93
2022-08-22T16:37:08.124Z,26.83
2022-08-22T16:39:49.857Z,26.86
2022-08-22T16:42:18.347Z,26.93
2022-08-22T16:45:05.171Z,26.81
2022-08-22T16:47:40.158Z,26.68
2022-08-22T16:50:15.928Z,26.74
2022-08-22T16:52:56.998Z,26.84
2022-08-22T16:55:29.497Z,26.67
2022-08-22T16:58:07.420Z,26.49
2022-08-22T17:00:36.916Z,26.47
2022-08-22T17:03:40.737Z,26.38
2022-08-22T17:06:35.740Z,26.42
2022-08-22T17:09:43.418Z,26.36
2022-08-22T17:12:19.431Z,26.31
2022-08-22T17:14:54.867Z,26.41
2022-08-22T17:17:46.250Z,26.30
2022-08-22T17:20:30.258Z,26.26
2022-08-22T17:23:34.795Z,26.24
2022-08-22T17:26:04.181Z,26.13
2022-08-22T17:28:53.128Z,26.08
2022-08-22T17:31:36.453Z,25.99
2022-08-22T17:34:14.652Z,26.24
2022-08-22T17:37:03.632Z,26.00
2022-08-22T17:39:42.228Z,25.66
2022-08-22T17:42:20.880Z,25.50
2022-08-22T17:44:56.564Z,25.37
2022-08-22T17:47:41.853Z,25.22
2022-08-22T17:50:22.450Z,24.96
2022-08-22T17:52:52.878Z,24.97
2022-08-22T17:55:26.656Z,24.94
2022-08-22T17:58:10.848Z,24.81
2022-08-22T18:00:47.564Z,24.68
2022-08-22T18:03:31.593Z,24.54
2022-08-22T18:06:10.225Z,24.46
2022-08-22T18:11:52.094Z,24.18
2022-08-22T18:14:18.702Z,24.23
2022-08-22T18:16:50.233Z,24.16
2022-08-22T18:19:39.592Z,24.07
2022-08-22T18:22:08.637Z,24.01
2022-08-22T18:24:48.794Z,24.04
2022-08-22T18:27:38.136Z,23.97
2022-08-22T18:30:13.637Z,23.94
2022-08-22T18:33:24.311Z,23.87
2022-08-22T18:36:02.892Z,23.77
2022-08-22T18:38:45.447Z,23.65
2022-08-22T18:41:31.505Z,23.51
2022-08-22T18:43:59.160Z,23.47
2022-08-22T18:46:37.838Z,23.43
2022-08-22T18:49:22.286Z,23.37
2022-08-22T18:52:17.177Z,23.31
2022-08-22T18:54:46.765Z,23.23
2022-08-22T18:57:31.835Z,23.15
2022-08-22T19:00:19.071Z,23.11
2022-08-22T19:02:55.708Z,23.13
2022-08-22T19:05:47.262Z,23.23
2022-08-22T19:08:53.738Z,23.28
2022-08-22T19:11:36.385Z,23.29
2022-08-22T19:14:18.606Z,23.19
2022-08-22T19:17:18.123Z,23.20
2022-08-22T19:20:12.768Z,23.23
2022-08-22T19:22:39.976Z,23.20
2022-08-22T19:25:09.294Z,23.11
2022-08-22T19:27:44.606Z,23.08
2022-08-22T19:30:36.076Z,22.97
2022-08-22T19:33:05.809Z,22.96
2022-08-22T19:35:46.201Z,22.91
2022-08-22T19:38:12.953Z,22.86
2022-08-22T19:40:45.489Z,22.80
2022-08-22T19:43:30.216Z,22.73
2022-08-22T19:45:59.790Z,22.73
2022-08-22T19:48:31.492Z,22.69
2022-08-22T19:51:28.329Z,22.70
2022-08-22T19:54:16.253Z,22.66
2022-08-22T19:57:11.960Z,22.71
2022-08-22T19:59:51.098Z,22.75
2022-08-22T20:02:32.040Z,22.82
2022-08-22T20:05:10.784Z,22.84
2022-08-22T20:07:56.037Z,22.81
2022-08-22T20:10:34.466Z,22.74
2022-08-22T20:13:05.340Z,22.65
2022-08-22T20:15:55.306Z,22.61
2022-08-22T20:19:05.934Z,22.51
2022-08-22T20:21:51.456Z,22.44
2022-08-22T20:24:25.530Z,22.38
2022-08-22T20:27:13.349Z,22.37
2022-08-22T20:29:50.101Z,22.32
2022-08-22T20:32:19.775Z,22.35
2022-08-22T20:34:50.432Z,22.38
2022-08-22T20:37:39.850Z,22.38
2022-08-22T20:40:56.078Z,22.37
2022-08-22T20:43:45.868Z,22.32
2022-08-22T20:46:12.914Z,22.38
2022-08-22T20:48:43.740Z,22.42
2022-08-22T20:51:15.489Z,22.43
2022-08-22T20:53:42.330Z,22.43
2022-08-22T20:56:09.620Z,22.44
2022-08-22T20:58:40.055Z,22.40
2022-08-22T21:01:11.732Z,22.40
2022-08-22T21:03:44.132Z,22.37
2022-08-22T21:06:17.135Z,22.35
2022-08-22T21:08:45.883Z,22.27
2022-08-22T21:11:40.459Z,22.14
2022-08-22T21:14:25.103Z,22.12
2022-08-22T21:16:52.132Z,22.08
2022-08-22T21:19:29.667Z,22.10
2022-08-22T21:22:34.802Z,22.08
2022-08-22T21:25:01.476Z,22.03
2022-08-22T21:27:31.181Z,22.02
2022-08-22T21:30:00.227Z,22.00
2022-08-22T21:32:34.372Z,22.02
2022-08-22T21:35:03.888Z,22.01
2022-08-22T21:37:40.516Z,21.96
2022-08-22T21:40:19.521Z,21.97
2022-08-22T21:43:01.019Z,21.96
2022-08-22T21:45:52.834Z,21.95
2022-08-22T21:48:35.355Z,21.95
2022-08-22T21:51:27.057Z,21.93
2022-08-22T21:54:28.454Z,21.92
2022-08-22T21:56:58.725Z,21.88
2022-08-22T21:59:52.058Z,21.90
2022-08-22T22:02:37.625Z,21.89
2022-08-22T22:05:14.666Z,21.87
2022-08-22T22:07:43.501Z,21.86
2022-08-22T22:10:13.237Z,21.84
2022-08-22T22:12:42.664Z,21.85
2022-08-22T22:15:13.902Z,21.79
2022-08-22T22:17:40.533Z,21.78
2022-08-22T22:20:07.959Z,21.72
2022-08-22T22:22:34.614Z,21.68
2022-08-22T22:25:04.832Z,21.63
2022-08-22T22:27:31.816Z,21.59
2022-08-22T22:29:58.348Z,21.56
2022-08-22T22:32:24.958Z,21.49
2022-08-22T22:34:51.571Z,21.44
2022-08-22T22:37:18.493Z,21.35
2022-08-22T22:39:45.106Z,21.31
2022-08-22T22:42:11.650Z,21.29
2022-08-22T22:44:38.174Z,21.22
2022-08-22T22:47:05.043Z,21.18
2022-08-22T22:49:32.662Z,21.13
2022-08-22T22:52:00.431Z,21.13
2022-08-22T22:54:27.580Z,21.06
2022-08-22T22:56:57.155Z,21.05
2022-08-22T22:59:25.488Z,21.02
2022-08-22T23:02:13.047Z,21.00
2022-08-22T23:04:42.066Z,20.92
2022-08-22T23:07:10.095Z,20.76
2022-08-22T23:09:38.621Z,20.67
2022-08-22T23:12:12.436Z,20.57
2022-08-22T23:14:39.068Z,20.51
2022-08-22T23:17:05.623Z,20.50
2022-08-22T23:19:33.292Z,20.43
2022-08-22T23:22:01.012Z,20.31
2022-08-22T23:24:29.877Z,20.30
2022-08-22T23:26:57.378Z,20.25
2022-08-22T23:29:24.773Z,20.26
2022-08-22T23:31:52.902Z,20.24
2022-08-22T23:34:23.256Z,20.25
2022-08-22T23:36:52.043Z,20.20
2022-08-22T23:39:20.233Z,20.13
2022-08-22T23:41:47.415Z,20.07
2022-08-22T23:44:16.580Z,20.07
2022-08-22T23:46:43.711Z,19.78
2022-08-22T23:49:10.571Z,19.80
2022-08-22T23:51:37.375Z,19.70
2022-08-22T23:54:05.016Z,19.55
2022-08-22T23:56:34.690Z,19.47
2022-08-22T23:59:05.752Z,19.40
